createdAt,value
2019-04-21T00:00:43.479Z,37.70
2019-04-21T00:06:10.369Z,37.52
2019-04-21T00:11:29.962Z,37.49
2019-04-21T00:16:31.293Z,37.51
2019-04-21T00:22:07.701Z,37.52
2019-04-21T00:27:28.347Z,37.45
2019-04-21T00:32:33.364Z,37.16
2019-04-21T00:38:00.604Z,37.18
2019-04-21T00:43:10.280Z,37.38
2019-04-21T00:48:22.966Z,37.36
2019-04-21T00:54:04.062Z,37.53
2019-04-21T00:59:15.125Z,37.49
2019-04-21T01:04:23.477Z,37.81
2019-04-21T01:09:32.735Z,38.01
2019-04-21T01:14:58.121Z,37.79
2019-04-21T01:20:01.200Z,37.78
2019-04-21T01:25:04.705Z,38.54
2019-04-21T01:30:29.520Z,38.70
2019-04-21T01:35:39.658Z,38.54
2019-04-21T01:40:57.153Z,39.05
2019-04-21T01:45:58.979Z,39.42
2019-04-21T01:51:08.502Z,39.45
2019-04-21T01:56:38.953Z,39.24
2019-04-21T02:01:57.193Z,39.37
2019-04-21T02:07:13.000Z,39.51
2019-04-21T02:12:48.803Z,39.45
2019-04-21T02:18:02.755Z,39.43
2019-04-21T02:23:31.861Z,39.31
2019-04-21T02:28:36.756Z,39.46
2019-04-21T02:34:00.658Z,38.90
2019-04-21T02:39:15.746Z,39.08
2019-04-21T03:00:32.914Z,39.37
2019-04-21T03:06:10.542Z,39.30
2019-04-21T03:11:53.382Z,38.91
2019-04-21T03:16:55.682Z,39.15
2019-04-21T03:22:21.022Z,38.99
2019-04-21T03:33:28.813Z,39.06
2019-04-21T03:38:16.591Z,38.84
2019-04-21T03:43:12.732Z,39.51
2019-04-21T03:48:34.685Z,40.27
2019-04-21T03:53:37.825Z,40.83
2019-04-21T03:58:54.210Z,40.96
2019-04-21T04:04:30.650Z,41.16
2019-04-21T04:09:37.531Z,40.99
2019-04-21T04:14:57.650Z,41.46
2019-04-21T04:20:01.102Z,41.53
2019-04-21T04:25:19.159Z,42.12
2019-04-21T04:30:35.014Z,42.28
2019-04-21T04:35:54.262Z,41.81
2019-04-21T04:41:24.410Z,42.05
2019-04-21T04:46:35.251Z,42.43
2019-04-21T04:52:09.653Z,42.28
2019-04-21T04:56:58.670Z,42.34
2019-04-21T05:12:30.948Z,42.23
2019-04-21T05:22:53.298Z,41.62
2019-04-21T05:28:01.025Z,40.76
2019-04-21T05:33:47.795Z,39.92
2019-04-21T05:39:12.838Z,39.45
2019-04-21T05:44:52.769Z,39.33
2019-04-21T05:50:02.962Z,38.81
2019-04-21T05:55:26.103Z,38.48
2019-04-21T06:06:22.039Z,38.18
2019-04-21T06:11:51.413Z,37.76
2019-04-21T06:17:31.476Z,37.56
2019-04-21T06:22:58.128Z,37.37
2019-04-21T06:28:08.982Z,37.38
2019-04-21T06:33:24.054Z,37.04
2019-04-21T06:39:04.965Z,36.58
2019-04-21T06:49:14.400Z,36.37
2019-04-21T06:54:35.447Z,35.84
2019-04-21T06:59:43.405Z,35.54
2019-04-21T07:05:00.475Z,34.82
2019-04-21T07:10:12.383Z,35.10
2019-04-21T07:15:25.309Z,34.56
2019-04-21T07:20:39.246Z,33.92
2019-04-21T07:25:53.125Z,33.83
2019-04-21T07:31:09.914Z,33.41
2019-04-21T07:36:28.968Z,33.42
2019-04-21T07:41:24.725Z,32.69
2019-04-21T07:46:39.562Z,32.98
2019-04-21T07:52:18.069Z,32.19
2019-04-21T07:57:18.814Z,31.92
2019-04-21T08:02:33.997Z,31.79
2019-04-21T08:07:59.201Z,31.55
2019-04-21T08:13:01.547Z,30.30
2019-04-21T08:18:20.486Z,31.31
2019-04-21T08:23:31.793Z,31.55
2019-04-21T08:28:47.299Z,31.31
2019-04-21T08:34:00.662Z,31.47
2019-04-21T08:39:14.020Z,31.76
2019-04-21T08:44:38.195Z,31.84
2019-04-21T08:49:41.456Z,32.19
2019-04-21T08:54:55.807Z,32.47
2019-04-21T09:00:26.021Z,32.42
2019-04-21T09:05:37.730Z,31.98
2019-04-21T09:10:48.540Z,32.39
2019-04-21T09:15:52.386Z,32.14
2019-04-21T09:21:14.919Z,32.69
2019-04-21T09:26:51.347Z,32.08
2019-04-21T09:31:57.251Z,32.06
2019-04-21T09:37:23.555Z,31.72
2019-04-21T09:42:21.911Z,31.99
2019-04-21T09:47:38.298Z,32.52
2019-04-21T09:52:58.275Z,31.86
2019-04-21T09:58:20.993Z,31.65
2019-04-21T10:03:21.182Z,32.65
2019-04-21T10:08:34.305Z,31.68
2019-04-21T10:13:48.620Z,29.64
2019-04-21T10:19:19.313Z,28.84
2019-04-21T10:24:32.482Z,28.86
2019-04-21T10:29:46.721Z,29.74
2019-04-21T10:34:57.018Z,29.73
2019-04-21T10:40:09.648Z,27.90
2019-04-21T10:45:21.156Z,27.69
2019-04-21T10:50:31.794Z,26.79
2019-04-21T10:56:17.341Z,25.98
2019-04-21T11:01:43.446Z,24.68
2019-04-21T11:07:13.507Z,23.11
2019-04-21T11:12:25.894Z,23.78
2019-04-21T11:17:36.472Z,22.96
2019-04-21T11:22:49.338Z,22.75
2019-04-21T11:28:03.102Z,22.97
2019-04-21T11:33:13.252Z,22.94
2019-04-21T11:38:55.328Z,22.72
2019-04-21T11:43:50.783Z,21.67
2019-04-21T11:49:02.201Z,21.80
2019-04-21T11:54:10.738Z,20.66
2019-04-21T11:59:24.161Z,19.68
2019-04-21T12:04:35.748Z,20.02
2019-04-21T12:09:51.357Z,19.46
2019-04-21T12:15:11.179Z,19.74
2019-04-21T12:20:24.330Z,19.24
2019-04-21T12:25:37.229Z,19.24
2019-04-21T12:30:49.515Z,18.41
2019-04-21T12:36:01.933Z,18.95
2019-04-21T12:41:14.801Z,19.93
2019-04-21T12:46:27.683Z,18.55
2019-04-21T12:51:41.878Z,18.27
2019-04-21T12:56:49.882Z,18.08
2019-04-21T13:02:04.137Z,17.43
2019-04-21T13:07:19.409Z,17.15
2019-04-21T13:12:29.195Z,17.59
2019-04-21T13:17:50.143Z,17.42
2019-04-21T13:22:59.757Z,17.69
2019-04-21T13:28:16.554Z,17.28
2019-04-21T13:33:27.222Z,17.96
2019-04-21T13:44:41.344Z,18.41
2019-04-21T13:49:50.389Z,17.65
2019-04-21T13:55:05.473Z,17.10
2019-04-21T14:00:15.132Z,16.99
2019-04-21T14:05:28.800Z,17.63
2019-04-21T14:10:43.945Z,18.17
2019-04-21T14:15:57.960Z,17.40
2019-04-21T14:21:15.532Z,16.36
2019-04-21T14:26:30.008Z,16.69
2019-04-21T14:31:38.387Z,16.69
2019-04-21T14:36:55.019Z,15.48
2019-04-21T14:42:06.349Z,16.75
2019-04-21T14:47:37.869Z,18.26
2019-04-21T14:52:52.813Z,19.20
2019-04-21T14:58:01.139Z,19.91
2019-04-21T15:03:14.159Z,20.92
2019-04-21T15:08:29.126Z,21.26
2019-04-21T15:14:04.016Z,22.22
2019-04-21T15:19:12.947Z,21.71
2019-04-21T15:24:34.308Z,21.48
2019-04-21T15:29:46.821Z,22.01
2019-04-21T15:35:00.186Z,21.78
2019-04-21T15:40:21.850Z,22.34
2019-04-21T15:45:42.992Z,22.31
2019-04-21T15:51:15.710Z,21.97
2019-04-21T15:56:54.288Z,22.28
2019-04-21T16:02:44.654Z,22.46
2019-04-21T16:08:14.708Z,22.49
2019-04-21T16:13:27.702Z,22.60
2019-04-21T16:18:58.394Z,22.60
2019-04-21T16:24:12.406Z,22.50
2019-04-21T16:29:25.000Z,22.31
2019-04-21T16:34:45.367Z,22.46
2019-04-21T16:40:03.234Z,22.35
2019-04-21T16:45:14.772Z,22.46
2019-04-21T16:50:28.040Z,22.65
2019-04-21T16:56:09.047Z,22.62
2019-04-21T17:01:30.133Z,23.15
2019-04-21T17:06:43.002Z,22.74
2019-04-21T17:11:59.917Z,23.10
2019-04-21T17:17:32.891Z,23.10
2019-04-21T17:22:19.752Z,23.06
2019-04-21T17:27:33.394Z,23.09
2019-04-21T17:32:48.015Z,23.31
2019-04-21T17:38:00.261Z,23.76
2019-04-21T17:43:17.496Z,23.61
2019-04-21T17:48:27.170Z,23.68
2019-04-21T17:54:02.596Z,24.00
2019-04-21T17:59:43.289Z,24.11
2019-04-21T18:04:42.634Z,23.94
2019-04-21T18:09:58.045Z,23.86
2019-04-21T18:14:59.309Z,24.05
2019-04-21T18:20:05.987Z,24.43
2019-04-21T18:25:31.748Z,24.73
2019-04-21T18:31:14.604Z,24.73
2019-04-21T18:36:41.225Z,24.91
2019-04-21T18:42:13.097Z,25.21
2019-04-21T18:47:33.840Z,25.57
2019-04-21T18:52:55.379Z,25.66
2019-04-21T18:57:47.853Z,25.98
2019-04-21T19:03:00.183Z,26.41
2019-04-21T19:08:26.408Z,26.86
2019-04-21T19:14:12.717Z,27.35
2019-04-21T19:24:29.237Z,27.89
2019-04-21T19:29:46.612Z,28.10
2019-04-21T19:34:37.775Z,28.11
2019-04-21T19:40:00.449Z,28.36
2019-04-21T19:45:16.478Z,28.53
2019-04-21T19:50:32.280Z,28.54
2019-04-21T19:55:24.282Z,28.74
2019-04-21T20:00:42.243Z,28.85
2019-04-21T20:06:02.102Z,29.24
2019-04-21T20:11:27.116Z,29.14
2019-04-21T20:16:41.287Z,28.96
2019-04-21T20:21:35.130Z,29.01
2019-04-21T20:26:59.961Z,29.27
2019-04-21T20:32:24.385Z,29.63
2019-04-21T20:37:26.479Z,29.62
2019-04-21T20:42:36.453Z,29.54
2019-04-21T20:47:41.014Z,29.70
2019-04-21T20:53:19.638Z,30.00
2019-04-21T20:58:34.259Z,30.56
2019-04-21T21:03:48.896Z,30.85
2019-04-21T21:09:01.548Z,30.79
2019-04-21T21:14:16.350Z,31.23
2019-04-21T21:19:34.889Z,31.84
2019-04-21T21:24:55.838Z,31.22
2019-04-21T21:30:30.027Z,31.34
2019-04-21T21:35:43.772Z,31.11
2019-04-21T21:41:13.838Z,30.61
2019-04-21T21:46:37.217Z,30.34
2019-04-21T21:51:41.165Z,30.32
2019-04-21T21:56:42.624Z,30.46
2019-04-21T22:01:57.879Z,30.79
2019-04-21T22:07:16.051Z,31.03
2019-04-21T22:12:29.281Z,31.31
2019-04-21T22:17:54.059Z,31.77
2019-04-21T22:23:01.251Z,32.23
2019-04-21T22:28:03.910Z,32.24
2019-04-21T22:33:21.030Z,32.92
2019-04-21T22:38:47.611Z,33.11
2019-04-21T22:44:04.944Z,33.32
2019-04-21T22:49:17.920Z,33.62
2019-04-21T22:54:37.998Z,33.97
2019-04-21T22:59:54.894Z,34.02
2019-04-21T23:05:03.974Z,34.15
2019-04-21T23:10:25.600Z,34.42
2019-04-21T23:15:42.390Z,34.49
2019-04-21T23:21:08.807Z,34.84
2019-04-21T23:26:39.446Z,34.84
2019-04-21T23:31:55.072Z,35.00
2019-04-21T23:37:03.228Z,35.07
2019-04-21T23:42:22.526Z,35.60
2019-04-21T23:47:39.587Z,35.55
2019-04-21T23:52:39.373Z,35.57
2019-04-21T23:58:04.892Z,35.87
